Ralston, Oklahoma
Current Conditions -  °F | °C
As of 10:53 PM on Sunday 21 Dec 2014 (Local Time) from KPNC Reporting Station
Haze Haze  
Wind Chill: 39°   Ceiling: 600
Heat Index: 46°   Visibility: 3mi
Dew Point: 44°   Wind: 18mph
Humidity: 93%   Direction: 150°SSE
Pressure: 29.68"   Gusts: NA
Location:  36.5°N, 96.73°W
Report Text: KPNC 220453Z AUTO 15016KT 3SM BR OVC006 08/07 A2968 RMK AO2 SLP047 T00780067
Loading
Personal Weather Stations






























Interactive Weather Map New forecast layout! Learn more

10-Day Weather Forecast

Advertisements
Track Severe Weather on mobile